Time;durP1;ratioP1;P1;durP2;ratioP2;P2;SDS_P1;SDS_P2;PMS_P1;PMS_P2;Temp;Humidity;BMP_temperature;BMP_pressure;BME280_temperature;BME280_humidity;BME280_pressure;Samples;Min_cycle;Max_cycle;Signal;HPM_P1;HPM_P2
2022/04/02 04:19:22;;;;;;;;;;;;;;;4.44;100.00;96306.06;5701959;24;19956;-71
2022/04/02 04:21:50;;;;;;;;;;;;;;;4.47;100.00;96319.09;4812820;29;19965;-72
2022/04/02 04:24:20;;;;;;;;;;;;;;;4.51;100.00;96321.84;4812604;29;19950;-73
2022/04/02 04:26:48;;;;;;;;;;;;;;;4.41;100.00;96331.00;4810522;29;19965;-71
2022/04/02 04:29:16;;;;;;;;;;;;;;;4.31;100.00;96334.59;4812727;29;19951;-71
2022/04/02 04:31:44;;;;;;;;;;;;;;;4.13;100.00;96329.19;4811675;29;19965;-71
2022/04/02 04:34:12;;;;;;;;;;;;;;;4.05;100.00;96338.72;4811841;29;19952;-70
2022/04/02 04:36:39;;;;;;;;;;;;;;;4.02;100.00;96335.97;4827565;29;19957;-70
2022/04/02 04:39:07;;;;;;;;;;;;;;;4.09;100.00;96344.22;4827690;29;19973;-71
2022/04/02 04:41:38;;;;;;;;;;;;;;;4.08;100.00;96348.97;4812025;29;19953;-71
2022/04/02 04:44:07;;;;;;;;;;;;;;;3.89;100.00;96346.69;4813178;29;19956;-71
2022/04/02 04:46:39;;;;;;;;;;;;;;;3.78;100.00;96359.78;4812877;29;19949;-71
2022/04/02 04:49:08;;;;;;;;;;;;;;;3.74;100.00;96359.00;4811682;29;19956;-70
2022/04/02 04:51:37;;;;;;;;;;;;;;;3.84;100.00;96363.69;4812646;29;20239;-71
2022/04/02 04:54:06;;;;;;;;;;;;;;;3.80;100.00;96368.44;4811562;29;19956;-71
2022/04/02 04:56:38;;;;;;;;;;;;;;;3.83;100.00;96373.97;4812325;29;19953;-71
2022/04/02 04:59:09;;;;;;;;;;;;;;;3.78;100.00;96379.13;4812549;29;19978;-71
2022/04/02 05:01:36;;;;;;;;;;;;;;;3.70;100.00;96375.59;4812490;29;20249;-71
2022/04/02 05:04:07;;;;;;;;;;;;;;;3.76;100.00;96375.97;4811822;29;19958;-71
2022/04/02 05:06:41;;;;;;;;;;;;;;;3.77;100.00;96377.53;4811423;29;19952;-71
2022/04/02 05:09:09;;;;;;;;;;;;;;;3.88;100.00;96378.28;4812446;29;19952;-71
2022/04/02 05:11:40;;;;;;;;;;;;;;;3.69;100.00;96381.53;4812649;29;19950;-71
2022/04/02 05:14:12;;;;;;;;;;;;;;;3.70;100.00;96381.13;4812364;29;19953;-70
2022/04/02 05:16:42;;;;;;;;;;;;;;;3.72;100.00;96381.50;4813079;29;19956;-71
2022/04/02 05:19:12;;;;;;;;;;;;;;;3.91;100.00;96386.56;4811768;29;19975;-70
2022/04/02 05:21:41;;;;;;;;;;;;;;;4.12;100.00;96394.00;4797309;29;19955;-70
2022/04/02 05:24:12;;;;;;;;;;;;;;;4.21;100.00;96394.34;4812472;29;20380;-70
2022/04/02 05:26:44;;;;;;;;;;;;;;;4.27;100.00;96392.75;4811901;29;19957;-70
2022/04/02 05:29:13;;;;;;;;;;;;;;;4.39;100.00;96403.34;4812913;29;20271;-71
2022/04/02 05:31:41;;;;;;;;;;;;;;;4.42;100.00;96405.31;4827729;29;19952;-71
2022/04/02 05:34:09;;;;;;;;;;;;;;;4.43;100.00;96414.38;4811504;29;19954;-71
2022/04/02 05:36:38;;;;;;;;;;;;;;;4.43;100.00;96411.63;4827916;29;19954;-71
2022/04/02 05:39:05;;;;;;;;;;;;;;;4.50;100.00;96415.13;4812095;29;19975;-71
2022/04/02 05:41:33;;;;;;;;;;;;;;;4.57;100.00;96419.84;4827540;29;19965;-71
2022/04/02 05:44:00;;;;;;;;;;;;;;;4.61;100.00;96431.69;4827474;29;19954;-71
2022/04/02 05:46:27;;;;;;;;;;;;;;;4.58;100.00;96438.81;4827568;29;19952;-70
2022/04/02 05:48:55;;;;;;;;;;;;;;;4.60;100.00;96453.03;4827802;29;19965;-70
2022/04/02 05:51:22;;;;;;;;;;;;;;;4.62;100.00;96453.41;4827469;29;19952;-70
2022/04/02 05:53:49;;;;;;;;;;;;;;;4.78;100.00;96457.69;4827285;29;19952;-71
2022/04/02 05:56:18;;;;;;;;;;;;;;;4.89;100.00;96448.13;4827339;29;19961;-72
2022/04/02 05:58:45;;;;;;;;;;;;;;;5.04;100.00;96452.38;4827202;29;19952;-72
2022/04/02 06:01:13;;;;;;;;;;;;;;;5.05;100.00;96450.41;4827493;29;19954;-72
2022/04/02 06:03:42;;;;;;;;;;;;;;;4.92;100.00;96443.75;4827948;29;19953;-71
2022/04/02 06:06:09;;;;;;;;;;;;;;;4.77;100.00;96458.91;4830822;29;19958;-72
2022/04/02 06:08:37;;;;;;;;;;;;;;;4.75;100.00;96453.75;4831259;29;19949;-72
2022/04/02 06:11:06;;;;;;;;;;;;;;;4.72;100.00;96460.09;4830644;29;19952;-71
2022/04/02 06:13:33;;;;;;;;;;;;;;;4.87;100.00;96469.88;4830698;29;19963;-71
2022/04/02 06:16:01;;;;;;;;;;;;;;;5.11;100.00;96474.47;4830680;29;19951;-70
2022/04/02 06:18:28;;;;;;;;;;;;;;;5.27;100.00;96479.53;4830339;29;19953;-70
2022/04/02 06:20:55;;;;;;;;;;;;;;;5.32;100.00;96481.84;4829592;29;19987;-70
2022/04/02 06:23:25;;;;;;;;;;;;;;;5.20;100.00;96474.03;4827800;29;19959;-70
2022/04/02 06:25:52;;;;;;;;;;;;;;;5.07;100.00;96472.94;4826903;29;19960;-71
2022/04/02 06:28:19;;;;;;;;;;;;;;;5.09;100.00;96474.09;4827790;29;19959;-70
2022/04/02 06:30:47;;;;;;;;;;;;;;;5.16;100.00;96478.81;4825942;29;19954;-71
2022/04/02 06:33:14;;;;;;;;;;;;;;;5.29;100.00;96477.13;4828768;29;20270;-71
2022/04/02 06:35:42;;;;;;;;;;;;;;;5.50;100.00;96488.03;4814837;29;19957;-71
2022/04/02 06:38:09;;;;;;;;;;;;;;;5.72;100.00;96491.44;4829463;29;19954;-71
2022/04/02 06:40:37;;;;;;;;;;;;;;;5.93;100.00;96494.03;4828303;29;20267;-71
2022/04/02 06:43:04;;;;;;;;;;;;;;;6.15;100.00;96491.81;4828193;29;19951;-71
2022/04/02 06:45:39;;;;;;;;;;;;;;;6.30;100.00;96491.25;4809699;29;19958;-70
2022/04/02 06:48:06;;;;;;;;;;;;;;;6.44;100.00;96485.53;4829785;29;20377;-70
2022/04/02 06:50:33;;;;;;;;;;;;;;;6.68;100.00;96483.66;4829630;29;20245;-71
2022/04/02 06:53:01;;;;;;;;;;;;;;;6.87;100.00;96485.00;4829441;29;20226;-71
2022/04/02 06:55:32;;;;;;;;;;;;;;;7.00;100.00;96492.34;4821158;29;20254;-71
2022/04/02 06:58:00;;;;;;;;;;;;;;;7.14;100.00;96500.47;4812670;29;20376;-71
2022/04/02 07:00:28;;;;;;;;;;;;;;;7.21;100.00;96510.72;4823760;29;19969;-71
2022/04/02 07:02:55;;;;;;;;;;;;;;;7.25;100.00;96506.69;4829169;29;19957;-70
2022/04/02 07:05:23;;;;;;;;;;;;;;;7.12;100.00;96521.56;4828969;29;20249;-68
2022/04/02 07:07:50;;;;;;;;;;;;;;;7.39;100.00;96508.44;4827268;29;20335;-69
2022/04/02 07:10:18;;;;;;;;;;;;;;;7.63;100.00;96518.41;4829167;29;19954;-71
2022/04/02 07:12:46;;;;;;;;;;;;;;;7.82;100.00;96528.06;4827346;29;19954;-71
2022/04/02 07:15:13;;;;;;;;;;;;;;;8.00;100.00;96522.94;4830277;29;19961;-71
2022/04/02 07:17:40;;;;;;;;;;;;;;;8.15;100.00;96517.91;4816670;29;19961;-71
2022/04/02 07:20:08;;;;;;;;;;;;;;;8.19;100.00;96527.03;4811687;29;20262;-71
2022/04/02 07:22:38;;;;;;;;;;;;;;;7.97;100.00;96524.59;4827407;29;19954;-71
2022/04/02 07:25:05;;;;;;;;;;;;;;;8.00;100.00;96530.50;4816116;29;19966;-71
2022/04/02 07:27:34;;;;;;;;;;;;;;;8.33;100.00;96524.00;4824000;29;20256;-71
2022/04/02 07:30:04;;;;;;;;;;;;;;;8.97;100.00;96535.47;4813529;29;19984;-71
2022/04/02 07:32:32;;;;;;;;;;;;;;;9.71;99.81;96531.00;4820577;29;19964;-71
2022/04/02 07:35:00;;;;;;;;;;;;;;;10.43;96.46;96542.00;4811418;29;19972;-71
2022/04/02 07:37:37;;;;;;;;;;;;;;;10.76;85.50;96551.09;4804669;29;19951;-71
2022/04/02 07:40:12;;;;;;;;;;;;;;;11.57;82.39;96552.28;4829855;29;19978;-71
2022/04/02 07:42:57;;;;;;;;;;;;;;;12.19;78.42;96556.34;4829813;29;19984;-70
2022/04/02 07:45:32;;;;;;;;;;;;;;;12.50;74.83;96557.28;4829677;29;19953;-71
2022/04/02 07:48:04;;;;;;;;;;;;;;;12.71;71.00;96563.38;4826784;29;20251;-71
2022/04/02 07:50:33;;;;;;;;;;;;;;;12.78;74.48;96565.94;4827263;29;19951;-69
2022/04/02 07:53:04;;;;;;;;;;;;;;;11.88;72.94;96572.94;4810969;29;20258;-69
2022/04/02 07:55:33;;;;;;;;;;;;;;;11.26;73.69;96575.63;4814209;29;20247;-69
2022/04/02 07:58:03;;;;;;;;;;;;;;;10.94;76.53;96576.53;4826990;29;19960;-69
2022/04/02 08:00:31;;;;;;;;;;;;;;;10.62;78.59;96583.00;4828568;29;19973;-68
2022/04/02 08:03:00;;;;;;;;;;;;;;;10.31;83.04;96585.41;4820928;29;19963;-68
2022/04/02 08:05:27;;;;;;;;;;;;;;;10.74;81.81;96584.28;4828406;29;19968;-70
2022/04/02 08:08:00;;;;;;;;;;;;;;;10.89;80.02;96588.25;4812228;29;19952;-70
2022/04/02 08:10:37;;;;;;;;;;;;;;;10.64;79.63;96593.75;4807560;29;20247;-69
2022/04/02 08:13:04;;;;;;;;;;;;;;;11.06;81.58;96584.97;4828124;29;19980;-69
2022/04/02 08:15:33;;;;;;;;;;;;;;;11.40;82.01;96595.59;4811849;29;19983;-69
2022/04/02 08:18:07;;;;;;;;;;;;;;;11.21;77.13;96604.94;4812972;29;19958;-68
2022/04/02 08:20:36;;;;;;;;;;;;;;;10.91;83.44;96597.78;4828858;29;19973;-69
2022/04/02 08:23:03;;;;;;;;;;;;;;;10.85;85.15;96593.97;4828546;29;19954;-68
2022/04/02 08:25:35;;;;;;;;;;;;;;;10.92;81.49;96599.38;4811224;29;20256;-69
2022/04/02 08:28:13;;;;;;;;;;;;;;;10.11;83.52;96607.03;4818491;29;19954;-68
2022/04/02 08:31:09;;;;;;;;;;;;;;;9.67;88.48;96610.44;4813979;29;19984;-67
2022/04/02 08:33:37;;;;;;;;;;;;;;;10.23;84.25;96611.16;4786490;29;19963;-68
2022/04/02 08:36:22;;;;;;;;;;;;;;;10.54;85.28;96621.53;4814802;29;20384;-69
2022/04/02 08:38:55;;;;;;;;;;;;;;;9.84;88.04;96624.00;4814710;29;19954;-69
2022/04/02 08:41:34;;;;;;;;;;;;;;;10.00;92.21;96616.88;4827869;29;19972;-69
2022/04/02 08:44:04;;;;;;;;;;;;;;;10.17;83.84;96621.28;4827855;29;19953;-69
2022/04/02 08:46:36;;;;;;;;;;;;;;;10.19;87.50;96621.63;4828169;29;19953;-69
2022/04/02 08:49:22;;;;;;;;;;;;;;;10.43;79.41;96634.19;4828639;29;19950;-68
2022/04/02 08:52:08;;;;;;;;;;;;;;;9.68;89.72;96637.16;4818591;29;19961;-68
2022/04/02 08:54:39;;;;;;;;;;;;;;;9.87;90.24;96630.72;4810480;29;19956;-68
2022/04/02 08:57:06;;;;;;;;;;;;;;;9.90;92.20;96630.63;4810339;29;19964;-68
2022/04/02 08:59:37;;;;;;;;;;;;;;;9.93;90.95;96633.81;4810368;29;19962;-68
2022/04/02 09:02:10;;;;;;;;;;;;;;;10.14;88.39;96633.31;4810746;29;20397;-69
2022/04/02 09:04:56;;;;;;;;;;;;;;;9.86;98.05;96631.94;4810394;29;19953;-69
2022/04/02 09:07:51;;;;;;;;;;;;;;;9.60;87.46;96642.09;4794447;29;19954;-69
2022/04/02 09:10:30;;;;;;;;;;;;;;;9.63;89.79;96644.03;4809293;29;19961;-69
2022/04/02 09:13:16;;;;;;;;;;;;;;;10.11;88.89;96646.13;4810442;29;19968;-69
2022/04/02 09:15:56;;;;;;;;;;;;;;;10.17;85.12;96654.81;4810185;29;20398;-69
2022/04/02 09:18:23;;;;;;;;;;;;;;;10.07;85.35;96650.22;4819737;29;20382;-69
2022/04/02 09:20:57;;;;;;;;;;;;;;;10.16;93.65;96656.00;4828260;29;19973;-69
2022/04/02 09:23:46;;;;;;;;;;;;;;;10.39;86.40;96661.47;4823455;29;19960;-68
2022/04/02 09:26:16;;;;;;;;;;;;;;;10.32;85.81;96656.03;4825209;29;20369;-68
2022/04/02 09:28:43;;;;;;;;;;;;;;;10.26;86.57;96654.97;4826135;29;19957;-68
2022/04/02 09:31:30;;;;;;;;;;;;;;;9.69;85.15;96653.44;4827582;29;19954;-68
2022/04/02 09:34:09;;;;;;;;;;;;;;;9.82;89.21;96657.16;4827547;29;19950;-68
2022/04/02 09:36:53;;;;;;;;;;;;;;;9.76;90.34;96653.28;4824028;29;20354;-68
2022/04/02 09:39:39;;;;;;;;;;;;;;;9.49;96.07;96654.69;4812547;29;19954;-68
2022/04/02 09:42:09;;;;;;;;;;;;;;;9.56;97.67;96660.91;4814155;29;20288;-68
2022/04/02 09:44:36;;;;;;;;;;;;;;;9.26;94.00;96658.34;4813635;29;19957;-68
2022/04/02 09:47:05;;;;;;;;;;;;;;;9.50;95.41;96651.47;4824736;29;20359;-68
2022/04/02 09:50:01;;;;;;;;;;;;;;;9.47;91.67;96648.75;4827341;29;20232;-68
2022/04/02 09:52:30;;;;;;;;;;;;;;;9.81;89.67;96644.41;4810408;29;19992;-68
2022/04/02 09:55:04;;;;;;;;;;;;;;;10.18;90.84;96639.59;4831910;29;19956;-68
2022/04/02 09:57:37;;;;;;;;;;;;;;;10.01;89.21;96644.34;4830655;29;19964;-68
2022/04/02 10:00:04;;;;;;;;;;;;;;;10.39;84.02;96648.25;4826586;29;20270;-68
2022/04/02 10:02:57;;;;;;;;;;;;;;;10.51;84.97;96646.78;4823386;29;19975;-68
2022/04/02 10:05:31;;;;;;;;;;;;;;;9.92;81.54;96652.56;4820814;29;19951;-68
2022/04/02 10:07:59;;;;;;;;;;;;;;;10.00;84.19;96655.97;4820899;29;19970;-68
2022/04/02 10:10:27;;;;;;;;;;;;;;;10.27;86.07;96662.16;4820742;29;19953;-68
2022/04/02 10:12:55;;;;;;;;;;;;;;;9.86;85.39;96657.06;4820547;29;19962;-68
2022/04/02 10:15:23;;;;;;;;;;;;;;;10.06;80.98;96662.59;4819101;29;19953;-69
2022/04/02 10:17:52;;;;;;;;;;;;;;;10.31;81.88;96660.03;4822807;29;19955;-69
2022/04/02 10:20:20;;;;;;;;;;;;;;;10.26;82.43;96664.16;4821626;29;19968;-69
2022/04/02 10:22:55;;;;;;;;;;;;;;;10.17;87.58;96669.53;4823409;29;20372;-68
2022/04/02 10:25:27;;;;;;;;;;;;;;;10.11;84.40;96664.88;4827319;29;19965;-68
2022/04/02 10:27:55;;;;;;;;;;;;;;;10.30;78.65;96666.84;4826775;29;19953;-68
2022/04/02 10:30:24;;;;;;;;;;;;;;;10.42;79.18;96671.75;4824741;29;19951;-68
2022/04/02 10:32:57;;;;;;;;;;;;;;;10.11;76.37;96670.47;4822436;29;19955;-68
2022/04/02 10:35:26;;;;;;;;;;;;;;;10.00;78.77;96670.69;4822767;29;19960;-68
2022/04/02 10:37:56;;;;;;;;;;;;;;;10.09;79.22;96659.75;4825946;29;19953;-68
2022/04/02 10:40:25;;;;;;;;;;;;;;;9.70;76.59;96663.41;4820484;29;19957;-68
2022/04/02 10:42:57;;;;;;;;;;;;;;;9.96;75.61;96663.63;4823880;29;19969;-68
2022/04/02 10:45:27;;;;;;;;;;;;;;;10.13;76.46;96668.03;4830730;29;19953;-69
2022/04/02 10:48:13;;;;;;;;;;;;;;;10.14;86.47;96670.44;4827355;29;19957;-69
2022/04/02 10:50:42;;;;;;;;;;;;;;;10.64;80.28;96675.59;4823243;29;20348;-68
2022/04/02 10:53:11;;;;;;;;;;;;;;;10.71;82.85;96671.84;4811830;29;19981;-68
2022/04/02 10:55:42;;;;;;;;;;;;;;;10.91;74.30;96676.09;4822276;29;19956;-68
2022/04/02 10:58:11;;;;;;;;;;;;;;;10.71;79.84;96677.44;4825188;29;19953;-68
2022/04/02 11:00:43;;;;;;;;;;;;;;;10.81;85.05;96676.38;4820104;29;19957;-69
2022/04/02 11:03:15;;;;;;;;;;;;;;;10.19;78.58;96683.09;4827132;29;20347;-68
2022/04/02 11:05:43;;;;;;;;;;;;;;;9.99;77.78;96676.72;4811963;29;19959;-68
2022/04/02 11:08:12;;;;;;;;;;;;;;;10.49;80.35;96685.53;4825076;29;19951;-68
2022/04/02 11:10:46;;;;;;;;;;;;;;;10.63;80.08;96687.22;4827232;29;19957;-68
2022/04/02 11:13:26;;;;;;;;;;;;;;;10.73;83.91;96684.16;4830142;29;19958;-68
2022/04/02 11:15:53;;;;;;;;;;;;;;;11.02;85.36;96690.59;4822338;29;19961;-68
2022/04/02 11:18:20;;;;;;;;;;;;;;;10.76;86.44;96686.06;4826140;29;20352;-68
2022/04/02 11:20:48;;;;;;;;;;;;;;;10.90;77.32;96682.13;4825515;29;20061;-70
2022/04/02 11:23:21;;;;;;;;;;;;;;;10.79;80.04;96678.81;4827014;29;19968;-70
2022/04/02 11:25:51;;;;;;;;;;;;;;;10.82;79.70;96678.72;4829736;29;19957;-70
2022/04/02 11:28:20;;;;;;;;;;;;;;;11.22;77.01;96674.44;4830122;29;20279;-70
2022/04/02 11:30:48;;;;;;;;;;;;;;;11.34;81.58;96680.53;4826755;29;19959;-69
2022/04/02 11:33:17;;;;;;;;;;;;;;;10.75;75.79;96684.50;4829631;29;19952;-69
2022/04/02 11:35:47;;;;;;;;;;;;;;;10.81;76.32;96693.16;4828330;29;20254;-69
2022/04/02 11:38:23;;;;;;;;;;;;;;;10.70;76.89;96693.41;4827186;29;19962;-69
2022/04/02 11:41:08;;;;;;;;;;;;;;;10.58;77.15;96691.31;4824862;29;19954;-69
2022/04/02 11:43:39;;;;;;;;;;;;;;;10.84;72.71;96683.88;4827895;29;19960;-68
2022/04/02 11:46:08;;;;;;;;;;;;;;;11.13;70.09;96696.66;4826134;29;20376;-69
2022/04/02 11:48:54;;;;;;;;;;;;;;;10.77;73.11;96693.22;4828900;29;19961;-69
2022/04/02 11:51:24;;;;;;;;;;;;;;;10.19;74.45;96697.06;4829006;29;19959;-69
2022/04/02 11:53:52;;;;;;;;;;;;;;;9.96;76.13;96695.13;4828967;29;19958;-73
2022/04/02 11:56:25;;;;;;;;;;;;;;;10.09;76.50;96704.44;4828680;29;19957;-69
2022/04/02 11:58:57;;;;;;;;;;;;;;;10.05;75.98;96697.34;4829235;29;19959;-69
2022/04/02 12:01:24;;;;;;;;;;;;;;;10.45;74.62;96690.44;4813024;29;19962;-69
2022/04/02 12:04:04;;;;;;;;;;;;;;;10.58;76.44;96691.31;4829076;29;19953;-69
2022/04/02 12:06:33;;;;;;;;;;;;;;;10.60;76.09;96696.47;4828937;29;19954;-69
2022/04/02 12:09:20;;;;;;;;;;;;;;;10.34;79.42;96692.72;4828638;29;20369;-69
2022/04/02 12:11:58;;;;;;;;;;;;;;;10.37;83.23;96686.22;4826974;29;19957;-69
2022/04/02 12:14:26;;;;;;;;;;;;;;;10.61;81.39;96695.25;4824086;29;20334;-69
2022/04/02 12:16:58;;;;;;;;;;;;;;;10.46;75.26;96690.00;4829019;29;20325;-69
2022/04/02 12:19:52;;;;;;;;;;;;;;;10.72;78.37;96685.38;4829029;29;20540;-69
2022/04/02 12:22:21;;;;;;;;;;;;;;;10.54;73.95;96701.78;4823005;29;19971;-69
2022/04/02 12:24:50;;;;;;;;;;;;;;;10.35;72.71;96688.69;4824162;29;19951;-69
2022/04/02 12:27:21;;;;;;;;;;;;;;;10.16;74.14;96692.31;4824739;29;19960;-68
2022/04/02 12:29:50;;;;;;;;;;;;;;;10.28;80.44;96691.63;4821526;29;19960;-68
2022/04/02 12:32:28;;;;;;;;;;;;;;;10.15;76.93;96696.34;4815202;29;19989;-68
2022/04/02 12:34:57;;;;;;;;;;;;;;;10.18;73.16;96695.47;4812927;29;20255;-68
2022/04/02 12:37:29;;;;;;;;;;;;;;;10.49;72.26;96691.91;4822512;29;19954;-68
2022/04/02 12:39:58;;;;;;;;;;;;;;;10.97;75.77;96687.53;4816327;29;19953;-68
2022/04/02 12:42:42;;;;;;;;;;;;;;;10.97;69.80;96696.72;4825344;29;19978;-68
2022/04/02 12:45:12;;;;;;;;;;;;;;;11.01;65.88;96696.59;4818621;29;19954;-69
2022/04/02 12:47:39;;;;;;;;;;;;;;;10.70;70.51;96703.81;4816402;29;19950;-69
2022/04/02 12:50:14;;;;;;;;;;;;;;;10.57;64.13;96701.72;4822894;29;19951;-70
2022/04/02 12:52:49;;;;;;;;;;;;;;;10.42;68.91;96703.25;4818520;29;19957;-69
2022/04/02 12:55:21;;;;;;;;;;;;;;;10.11;70.34;96703.97;4818836;29;19953;-70
2022/04/02 12:58:10;;;;;;;;;;;;;;;10.16;73.95;96703.50;4816861;29;19967;-69
2022/04/02 13:00:39;;;;;;;;;;;;;;;10.48;65.82;96709.13;4822437;29;19961;-68
2022/04/02 13:03:09;;;;;;;;;;;;;;;10.61;68.09;96698.03;4820706;29;19982;-69
2022/04/02 13:05:48;;;;;;;;;;;;;;;10.85;74.52;96697.44;4820189;29;19953;-70
2022/04/02 13:08:21;;;;;;;;;;;;;;;10.80;66.78;96720.31;4818075;29;19950;-69
2022/04/02 13:10:53;;;;;;;;;;;;;;;10.89;67.24;96703.69;4819630;29;19960;-68
2022/04/02 13:13:33;;;;;;;;;;;;;;;10.70;63.83;96707.38;4825061;29;19958;-71
2022/04/02 13:16:01;;;;;;;;;;;;;;;10.54;60.80;96701.78;4826587;29;19952;-69
2022/04/02 13:21:20;;;;;;;;;;;;;;;10.08;65.68;96707.63;4827202;29;19981;-68
2022/04/02 13:23:58;;;;;;;;;;;;;;;10.29;71.02;96704.41;4832256;29;19967;-69
2022/04/02 13:26:30;;;;;;;;;;;;;;;10.12;64.02;96711.97;4819834;29;19964;-68
2022/04/02 13:28:57;;;;;;;;;;;;;;;10.02;65.39;96706.59;4817374;29;19958;-68
2022/04/02 13:31:27;;;;;;;;;;;;;;;9.99;68.17;96716.63;4826790;29;19954;-68
2022/04/02 13:34:13;;;;;;;;;;;;;;;10.15;67.05;96713.13;4828172;29;19957;-68
2022/04/02 13:37:00;;;;;;;;;;;;;;;10.16;68.21;96714.66;4828270;29;19964;-68
2022/04/02 13:39:32;;;;;;;;;;;;;;;10.31;68.70;96719.50;4827243;29;19957;-68
2022/04/02 13:42:05;;;;;;;;;;;;;;;10.23;69.63;96720.09;4826431;29;19961;-68
2022/04/02 13:44:35;;;;;;;;;;;;;;;10.50;71.77;96723.44;4827117;29;19953;-69
2022/04/02 13:47:08;;;;;;;;;;;;;;;10.57;71.37;96714.88;4825525;29;20005;-68
2022/04/02 13:49:41;;;;;;;;;;;;;;;10.71;71.54;96722.91;4827260;29;20409;-68
2022/04/02 13:52:11;;;;;;;;;;;;;;;10.49;65.10;96730.25;4827180;29;20385;-69
2022/04/02 13:54:38;;;;;;;;;;;;;;;10.32;64.67;96717.50;4827950;29;19962;-69
2022/04/02 13:57:16;;;;;;;;;;;;;;;10.55;66.02;96723.72;4827881;29;19950;-70
2022/04/02 13:59:44;;;;;;;;;;;;;;;10.64;64.29;96714.72;4827455;29;20295;-68
2022/04/02 14:02:16;;;;;;;;;;;;;;;10.90;65.49;96710.09;4826173;29;20019;-68
2022/04/02 14:04:50;;;;;;;;;;;;;;;10.89;61.08;96719.69;4809503;29;19951;-68
2022/04/02 14:07:21;;;;;;;;;;;;;;;10.60;65.22;96716.03;4820660;29;20255;-69
2022/04/02 14:09:48;;;;;;;;;;;;;;;10.63;66.36;96718.75;4819621;29;19958;-68
2022/04/02 14:12:20;;;;;;;;;;;;;;;10.39;69.29;96720.13;4826985;29;20363;-68
2022/04/02 14:14:55;;;;;;;;;;;;;;;10.34;73.96;96729.03;4825984;29;19970;-68
2022/04/02 14:17:29;;;;;;;;;;;;;;;10.04;69.50;96734.84;4826942;29;19959;-68
2022/04/02 14:20:07;;;;;;;;;;;;;;;9.97;68.67;96730.22;4827941;29;20227;-68
2022/04/02 14:22:53;;;;;;;;;;;;;;;10.01;72.29;96735.72;4816097;29;19976;-68
2022/04/02 14:25:23;;;;;;;;;;;;;;;9.75;73.08;96729.09;4827863;29;19952;-68
2022/04/02 14:27:54;;;;;;;;;;;;;;;9.77;76.44;96738.63;4826401;29;19960;-68
2022/04/02 14:30:24;;;;;;;;;;;;;;;9.66;77.27;96740.81;4828677;29;19957;-68
2022/04/02 14:32:52;;;;;;;;;;;;;;;9.58;76.60;96745.00;4830181;29;20251;-68
2022/04/02 14:35:20;;;;;;;;;;;;;;;9.55;77.21;96750.63;4829076;29;19960;-69
2022/04/02 14:37:47;;;;;;;;;;;;;;;9.57;74.32;96746.19;4829063;29;19960;-69
2022/04/02 14:40:33;;;;;;;;;;;;;;;9.43;76.25;96746.47;4829034;29;20228;-68
2022/04/02 14:43:00;;;;;;;;;;;;;;;9.45;76.63;96748.84;4830047;29;19981;-68
2022/04/02 14:45:27;;;;;;;;;;;;;;;9.40;76.16;96757.69;4836541;29;19955;-68
2022/04/02 14:48:13;;;;;;;;;;;;;;;9.39;77.72;96758.94;4829243;29;19961;-68
2022/04/02 14:50:59;;;;;;;;;;;;;;;9.48;77.62;96765.53;4829004;29;20374;-68
2022/04/02 14:53:27;;;;;;;;;;;;;;;9.58;78.51;96761.75;4840100;29;19953;-69
2022/04/02 14:56:14;;;;;;;;;;;;;;;9.61;78.58;96760.84;4843390;29;19983;-69
2022/04/02 14:58:41;;;;;;;;;;;;;;;9.77;80.17;96760.94;4838254;29;19952;-68
2022/04/02 15:01:14;;;;;;;;;;;;;;;9.91;79.27;96748.69;4829700;29;19984;-68
2022/04/02 15:03:50;;;;;;;;;;;;;;;9.91;94.94;96755.06;4839458;29;20278;-68
2022/04/02 15:06:36;;;;;;;;;;;;;;;9.74;99.53;96759.00;4820544;29;20372;-72
2022/04/02 15:09:39;;;;;;;;;;;;;;;9.54;100.00;96786.13;4829186;29;20363;-71
2022/04/02 15:12:10;;;;;;;;;;;;;;;9.13;100.00;96791.25;4830256;29;19957;-71
2022/04/02 15:14:40;;;;;;;;;;;;;;;9.03;100.00;96803.38;4829367;29;19964;-70
2022/04/02 15:17:26;;;;;;;;;;;;;;;8.96;100.00;96803.50;4823847;29;19956;-69
2022/04/02 15:20:16;;;;;;;;;;;;;;;8.85;100.00;96806.44;4817384;29;19977;-70
2022/04/02 15:22:44;;;;;;;;;;;;;;;8.77;100.00;96804.22;4823423;29;19961;-70
2022/04/02 15:25:25;;;;;;;;;;;;;;;8.78;100.00;96809.34;4835557;29;19959;-69
2022/04/02 15:28:22;;;;;;;;;;;;;;;8.70;100.00;96821.03;4820028;29;19953;-70
2022/04/02 15:30:51;;;;;;;;;;;;;;;8.67;100.00;96824.66;4824592;29;19954;-70
2022/04/02 15:33:22;;;;;;;;;;;;;;;8.59;100.00;96832.34;4823223;29;20437;-69
2022/04/02 15:36:03;;;;;;;;;;;;;;;8.47;100.00;96844.84;4828044;29;19950;-69
2022/04/02 15:38:52;;;;;;;;;;;;;;;8.48;100.00;96856.78;4825085;29;20249;-71
2022/04/02 15:41:21;;;;;;;;;;;;;;;8.49;100.00;96848.00;4822879;29;20063;-69
2022/04/02 15:43:49;;;;;;;;;;;;;;;8.42;100.00;96853.69;4824553;29;20367;-71
2022/04/02 15:46:28;;;;;;;;;;;;;;;8.32;100.00;96851.03;4823921;29;19968;-70
2022/04/02 15:49:09;;;;;;;;;;;;;;;8.27;100.00;96852.28;4829022;29;19953;-71
2022/04/02 15:51:52;;;;;;;;;;;;;;;8.19;100.00;96859.09;4825218;29;19952;-69
2022/04/02 15:54:22;;;;;;;;;;;;;;;7.96;100.00;96856.22;4814290;29;19960;-72
2022/04/02 15:57:01;;;;;;;;;;;;;;;7.90;100.00;96867.03;4810722;29;19963;-72
2022/04/02 15:59:32;;;;;;;;;;;;;;;7.96;99.40;96861.78;4822823;29;20340;-70
2022/04/02 16:02:00;;;;;;;;;;;;;;;8.00;92.50;96864.50;4822959;29;19964;-70
2022/04/02 16:04:27;;;;;;;;;;;;;;;7.83;91.74;96880.22;4811930;29;19977;-69
2022/04/02 16:07:15;;;;;;;;;;;;;;;7.84;92.44;96890.16;4829210;29;19960;-70
2022/04/02 16:10:00;;;;;;;;;;;;;;;7.83;97.69;96902.47;4818753;29;19960;-69
2022/04/02 16:12:30;;;;;;;;;;;;;;;7.78;99.15;96909.28;4820665;29;19965;-69
2022/04/02 16:15:16;;;;;;;;;;;;;;;7.72;100.00;96905.41;4818053;29;19955;-70
2022/04/02 16:18:03;;;;;;;;;;;;;;;7.64;100.00;96906.66;4826304;29;19951;-70
2022/04/02 16:20:31;;;;;;;;;;;;;;;7.55;100.00;96916.69;4818013;29;19981;-69
2022/04/02 16:22:58;;;;;;;;;;;;;;;7.50;100.00;96923.50;4812626;29;20349;-69
2022/04/02 16:25:29;;;;;;;;;;;;;;;7.47;100.00;96931.84;4819315;29;19972;-69
2022/04/02 16:27:57;;;;;;;;;;;;;;;7.41;100.00;96939.84;4813255;29;20237;-68
2022/04/02 16:30:24;;;;;;;;;;;;;;;7.44;100.00;96952.13;4826763;29;19951;-68
2022/04/02 16:32:52;;;;;;;;;;;;;;;7.29;100.00;96955.03;4817867;29;19960;-70
2022/04/02 16:35:19;;;;;;;;;;;;;;;7.33;100.00;96962.56;4823068;29;19953;-72
2022/04/02 16:38:02;;;;;;;;;;;;;;;7.22;100.00;96971.78;4828004;29;19961;-72
2022/04/02 16:40:29;;;;;;;;;;;;;;;6.63;100.00;96980.47;4827111;29;20336;-73
2022/04/02 16:43:05;;;;;;;;;;;;;;;6.25;100.00;96980.22;4829869;29;20246;-73
2022/04/02 16:45:33;;;;;;;;;;;;;;;5.92;100.00;96975.94;4825447;29;19980;-73
2022/04/02 16:48:00;;;;;;;;;;;;;;;5.73;100.00;96990.19;4820185;29;19952;-72
2022/04/02 16:50:27;;;;;;;;;;;;;;;5.57;100.00;96992.59;4826680;29;20368;-70
2022/04/02 16:52:55;;;;;;;;;;;;;;;5.52;100.00;96995.78;4822621;29;19959;-70
2022/04/02 16:55:22;;;;;;;;;;;;;;;5.50;100.00;96994.59;4826946;29;19963;-70
2022/04/02 16:57:50;;;;;;;;;;;;;;;5.41;100.00;97008.81;4826728;29;19952;-70
2022/04/02 17:00:17;;;;;;;;;;;;;;;5.43;100.00;97006.44;4827699;29;19950;-70
2022/04/02 17:03:01;;;;;;;;;;;;;;;5.44;100.00;96998.94;4825545;29;20369;-69
2022/04/02 17:05:36;;;;;;;;;;;;;;;5.48;100.00;97006.03;4827188;29;19987;-70
2022/04/02 17:08:12;;;;;;;;;;;;;;;5.47;100.00;97010.03;4826519;29;19956;-70
2022/04/02 17:10:39;;;;;;;;;;;;;;;5.56;100.00;97015.97;4827144;29;20322;-70
2022/04/02 17:13:08;;;;;;;;;;;;;;;5.64;100.00;97017.56;4823325;29;19963;-70
2022/04/02 17:15:36;;;;;;;;;;;;;;;5.64;100.00;97019.53;4822912;29;20366;-70
2022/04/02 17:18:07;;;;;;;;;;;;;;;5.66;100.00;97029.03;4826762;29;19963;-70
2022/04/02 17:20:36;;;;;;;;;;;;;;;5.64;100.00;97023.09;4826667;29;19981;-70
2022/04/02 17:23:03;;;;;;;;;;;;;;;5.71;100.00;97042.50;4826568;29;19958;-70
2022/04/02 17:25:33;;;;;;;;;;;;;;;5.71;100.00;97053.59;4826629;29;19974;-70
2022/04/02 17:28:00;;;;;;;;;;;;;;;5.72;100.00;97049.63;4827384;29;19953;-70
2022/04/02 17:30:28;;;;;;;;;;;;;;;5.73;100.00;97059.53;4820236;29;20358;-70
2022/04/02 17:32:58;;;;;;;;;;;;;;;5.73;100.00;97056.75;4820828;29;19963;-69
2022/04/02 17:35:29;;;;;;;;;;;;;;;5.76;100.00;97064.31;4824168;29;20240;-70